Time;durP1;ratioP1;P1;durP2;ratioP2;P2;SDS_P1;SDS_P2;PMS_P1;PMS_P2;Temp;Humidity;BMP_temperature;BMP_pressure;BME280_temperature;BME280_humidity;BME280_pressure;Samples;Min_cycle;Max_cycle;Signal;HPM_P1;HPM_P2
2022/06/09 00:01:35;;;;;;;;;;;;;;;22.90;51.26;100198.19;4963232;28;4290;-59
2022/06/09 00:04:15;;;;;;;;;;;;;;;22.90;51.68;100195.31;4960918;28;5490;-59
2022/06/09 00:06:46;;;;;;;;;;;;;;;22.89;51.45;100209.00;4963169;28;5240;-59
2022/06/09 00:09:12;;;;;;;;;;;;;;;22.88;51.70;100213.31;4957871;28;5796;-58
2022/06/09 00:11:40;;;;;;;;;;;;;;;22.88;51.63;100204.63;4961311;28;4582;-59
2022/06/09 00:14:06;;;;;;;;;;;;;;;22.87;51.63;100203.19;4966121;28;5639;-59
2022/06/09 00:16:33;;;;;;;;;;;;;;;22.88;51.38;100204.63;4958693;28;4238;-59
2022/06/09 00:19:00;;;;;;;;;;;;;;;22.88;51.57;100198.88;4960666;28;5568;-58
2022/06/09 00:21:26;;;;;;;;;;;;;;;22.88;51.61;100206.81;4964761;28;5422;-59
2022/06/09 00:23:52;;;;;;;;;;;;;;;22.89;51.64;100211.16;4964672;28;5402;-59
2022/06/09 00:26:19;;;;;;;;;;;;;;;22.87;51.52;100211.84;4957040;28;4121;-59
2022/06/09 00:28:46;;;;;;;;;;;;;;;22.87;51.66;100211.13;4960505;28;4327;-59
2022/06/09 00:31:12;;;;;;;;;;;;;;;22.87;51.71;100217.63;4966930;28;4170;-59
2022/06/09 00:33:39;;;;;;;;;;;;;;;22.87;51.52;100220.50;4967348;28;4079;-59
2022/06/09 00:36:05;;;;;;;;;;;;;;;22.86;51.52;100216.16;4965466;28;5684;-58
2022/06/09 00:38:32;;;;;;;;;;;;;;;22.87;51.67;100214.72;4968805;28;4663;-59
2022/06/09 00:40:59;;;;;;;;;;;;;;;22.87;51.43;100214.72;4963830;28;4562;-58
2022/06/09 00:43:26;;;;;;;;;;;;;;;22.87;51.52;100216.88;4964907;28;4218;-59
2022/06/09 00:45:59;;;;;;;;;;;;;;;22.86;51.71;100216.16;4963991;28;4247;-58
2022/06/09 00:48:32;;;;;;;;;;;;;;;22.86;51.72;100216.16;4959631;28;5575;-59
2022/06/09 00:51:04;;;;;;;;;;;;;;;22.88;51.61;100221.22;4965985;28;5719;-59
2022/06/09 00:53:31;;;;;;;;;;;;;;;22.87;51.45;100211.84;4967152;28;5363;-59
2022/06/09 00:55:58;;;;;;;;;;;;;;;22.88;51.58;100212.56;4978462;28;4242;-59
2022/06/09 00:58:24;;;;;;;;;;;;;;;22.85;51.34;100214.69;4965822;28;4087;-59
2022/06/09 01:00:52;;;;;;;;;;;;;;;22.87;51.54;100226.28;4967537;28;4426;-60
2022/06/09 01:03:19;;;;;;;;;;;;;;;22.85;51.66;100226.22;4961696;28;4785;-59
2022/06/09 01:05:46;;;;;;;;;;;;;;;22.84;51.38;100224.75;4965784;28;4449;-58
2022/06/09 01:08:12;;;;;;;;;;;;;;;22.87;51.52;100228.44;4962932;28;4778;-59
2022/06/09 01:10:39;;;;;;;;;;;;;;;22.86;51.58;100226.94;4966894;28;4052;-59
2022/06/09 01:13:05;;;;;;;;;;;;;;;22.83;51.55;100223.28;4962719;28;4588;-59
2022/06/09 01:15:51;;;;;;;;;;;;;;;22.82;51.47;100221.81;4962935;28;5343;-59
2022/06/09 01:18:20;;;;;;;;;;;;;;;22.83;51.72;100223.28;4964098;28;4043;-59
2022/06/09 01:20:47;;;;;;;;;;;;;;;22.83;51.51;100229.06;4955999;28;4437;-59
2022/06/09 01:23:32;;;;;;;;;;;;;;;22.83;51.60;100234.09;4960771;28;4005;-59
2022/06/09 01:26:17;;;;;;;;;;;;;;;22.83;51.53;100234.81;4958611;28;4057;-59
2022/06/09 01:28:43;;;;;;;;;;;;;;;22.82;51.66;100227.59;4960352;28;4158;-60
2022/06/09 01:31:12;;;;;;;;;;;;;;;22.82;51.76;100233.38;4960294;28;4456;-59
2022/06/09 01:33:47;;;;;;;;;;;;;;;22.81;51.55;100220.34;4965402;28;4000;-59
2022/06/09 01:36:25;;;;;;;;;;;;;;;22.82;51.84;100233.38;4960156;28;5225;-59
2022/06/09 01:38:52;;;;;;;;;;;;;;;22.83;51.64;100234.81;4958020;28;5123;-59
2022/06/09 01:41:19;;;;;;;;;;;;;;;22.82;51.48;100221.81;4964454;28;4417;-59
2022/06/09 01:43:46;;;;;;;;;;;;;;;22.82;51.77;100227.59;4965779;28;4226;-59
2022/06/09 01:46:28;;;;;;;;;;;;;;;22.80;51.81;100224.66;4967080;28;5518;-59
2022/06/09 01:48:55;;;;;;;;;;;;;;;22.80;51.81;100224.66;4956592;28;5418;-59
2022/06/09 01:51:22;;;;;;;;;;;;;;;22.79;51.85;100218.16;4961960;28;4174;-59
2022/06/09 01:53:49;;;;;;;;;;;;;;;22.79;51.82;100228.94;4954837;28;5523;-59
2022/06/09 01:56:16;;;;;;;;;;;;;;;22.80;51.63;100224.66;4959632;28;5578;-59
2022/06/09 01:58:47;;;;;;;;;;;;;;;22.80;51.75;100224.66;4963025;28;4266;-59
2022/06/09 02:01:13;;;;;;;;;;;;;;;22.81;51.81;100223.22;4960487;28;4028;-59
2022/06/09 02:03:40;;;;;;;;;;;;;;;22.81;51.43;100217.44;4976420;28;5819;-59
2022/06/09 02:06:06;;;;;;;;;;;;;;;22.81;51.69;100220.34;4957346;28;4937;-59
2022/06/09 02:08:33;;;;;;;;;;;;;;;22.82;51.45;100230.47;4966465;28;5414;-59
2022/06/09 02:11:00;;;;;;;;;;;;;;;22.81;51.81;100231.88;4961695;28;6802;-60
2022/06/09 02:13:27;;;;;;;;;;;;;;;22.80;51.58;100230.41;4966607;28;4880;-59
2022/06/09 02:15:54;;;;;;;;;;;;;;;22.80;51.59;100230.41;4957187;28;4704;-59
2022/06/09 02:18:22;;;;;;;;;;;;;;;22.80;51.73;100230.41;4957909;28;6094;-59
2022/06/09 02:20:50;;;;;;;;;;;;;;;22.80;51.47;100228.25;4962915;28;4242;-59
2022/06/09 02:23:17;;;;;;;;;;;;;;;22.80;51.68;100236.94;4960330;28;4182;-59
2022/06/09 02:25:43;;;;;;;;;;;;;;;22.79;51.50;100232.59;4960439;28;4049;-59
2022/06/09 02:28:10;;;;;;;;;;;;;;;22.79;51.69;100235.47;4962682;28;5643;-59
2022/06/09 02:30:36;;;;;;;;;;;;;;;22.78;51.52;100231.09;4965196;28;4225;-59
2022/06/09 02:33:18;;;;;;;;;;;;;;;22.77;51.71;100229.63;4965669;28;4220;-59
2022/06/09 02:35:45;;;;;;;;;;;;;;;22.77;51.69;100237.56;4964639;28;4090;-59
2022/06/09 02:38:12;;;;;;;;;;;;;;;22.78;51.60;100239.03;4965499;28;4575;-59
2022/06/09 02:40:38;;;;;;;;;;;;;;;22.78;51.49;100230.38;4968459;28;4286;-59
2022/06/09 02:43:05;;;;;;;;;;;;;;;22.79;51.46;100241.25;4962446;28;5479;-59
2022/06/09 02:45:33;;;;;;;;;;;;;;;22.79;51.59;100241.25;4957076;28;4186;-59
2022/06/09 02:48:00;;;;;;;;;;;;;;;22.79;51.45;100238.34;4959243;28;4580;-59
2022/06/09 02:50:26;;;;;;;;;;;;;;;22.79;51.64;100247.00;4961392;28;5896;-58
2022/06/09 02:52:52;;;;;;;;;;;;;;;22.78;51.60;100239.03;4961406;28;4704;-59
2022/06/09 02:55:19;;;;;;;;;;;;;;;22.79;51.59;100246.25;4965221;28;4257;-59
2022/06/09 02:57:45;;;;;;;;;;;;;;;22.78;51.54;100248.41;4959198;28;5718;-58
2022/06/09 03:00:14;;;;;;;;;;;;;;;22.79;51.66;100249.16;4959487;28;4569;-59
2022/06/09 03:02:42;;;;;;;;;;;;;;;22.79;51.62;100249.16;4963832;28;5332;-59
2022/06/09 03:05:08;;;;;;;;;;;;;;;22.80;51.69;100247.75;4963119;28;5319;-59
2022/06/09 03:07:35;;;;;;;;;;;;;;;22.79;51.46;100247.00;4964393;28;4188;-59
2022/06/09 03:10:01;;;;;;;;;;;;;;;22.78;51.39;100251.31;4966359;28;4193;-59
2022/06/09 03:12:27;;;;;;;;;;;;;;;22.78;51.75;100251.31;4965113;28;4204;-59
2022/06/09 03:14:54;;;;;;;;;;;;;;;22.78;51.66;100256.34;4967050;28;4812;-59
2022/06/09 03:17:20;;;;;;;;;;;;;;;22.78;51.54;100257.06;4960094;28;4028;-60
2022/06/09 03:19:47;;;;;;;;;;;;;;;22.79;51.60;100263.56;4961182;28;4086;-59
2022/06/09 03:22:13;;;;;;;;;;;;;;;22.79;51.61;100263.56;4957518;28;5624;-59
2022/06/09 03:24:40;;;;;;;;;;;;;;;22.78;51.76;100262.84;4967295;28;5479;-59
2022/06/09 03:27:06;;;;;;;;;;;;;;;22.78;51.57;100265.72;4965061;28;4133;-58
2022/06/09 03:29:32;;;;;;;;;;;;;;;22.78;51.36;100270.78;4963421;28;4060;-59
2022/06/09 03:31:59;;;;;;;;;;;;;;;22.77;51.47;100275.09;4955697;28;5657;-59
2022/06/09 03:34:25;;;;;;;;;;;;;;;22.78;51.36;100273.66;4960777;28;5404;-59
2022/06/09 03:36:52;;;;;;;;;;;;;;;22.79;51.63;100280.91;4961390;28;5718;-58
2022/06/09 03:39:18;;;;;;;;;;;;;;;22.79;51.56;100272.25;4966607;28;4149;-59
2022/06/09 03:41:44;;;;;;;;;;;;;;;22.80;51.20;100279.50;4959643;28;5309;-59
2022/06/09 03:44:11;;;;;;;;;;;;;;;22.78;51.43;100282.31;4963785;28;5249;-59
2022/06/09 03:46:37;;;;;;;;;;;;;;;22.75;51.58;100275.75;4964390;28;4229;-59
2022/06/09 03:49:04;;;;;;;;;;;;;;;22.75;51.67;100280.81;4963860;28;4601;-59
2022/06/09 03:51:30;;;;;;;;;;;;;;;22.74;51.63;100280.06;4965479;28;4007;-59
2022/06/09 03:53:56;;;;;;;;;;;;;;;22.74;51.62;100285.09;4965478;28;5616;-59
2022/06/09 03:56:23;;;;;;;;;;;;;;;22.74;51.54;100279.31;4962774;28;5649;-59
2022/06/09 03:58:49;;;;;;;;;;;;;;;22.74;51.68;100282.22;4965065;28;4297;-59
2022/06/09 04:01:17;;;;;;;;;;;;;;;22.73;51.78;100295.19;4967102;28;5207;-60
2022/06/09 04:03:44;;;;;;;;;;;;;;;22.72;51.73;100282.16;4961953;28;5500;-59
2022/06/09 04:06:14;;;;;;;;;;;;;;;22.72;51.35;100299.47;4954450;28;5465;-59
2022/06/09 04:08:40;;;;;;;;;;;;;;;22.72;51.51;100293.69;4963780;28;5655;-59
2022/06/09 04:11:06;;;;;;;;;;;;;;;22.72;51.69;100296.56;4959953;28;4209;-59
2022/06/09 04:13:33;;;;;;;;;;;;;;;22.72;51.41;100293.69;4969776;28;4202;-59
2022/06/09 04:15:59;;;;;;;;;;;;;;;22.71;51.53;100295.84;4965443;28;6086;-59
2022/06/09 04:18:25;;;;;;;;;;;;;;;22.71;51.65;100303.78;4964812;28;5698;-59
2022/06/09 04:20:52;;;;;;;;;;;;;;;22.71;51.62;100304.50;4969944;28;5606;-59
2022/06/09 04:23:18;;;;;;;;;;;;;;;22.71;51.47;100303.78;4968795;28;5517;-59
2022/06/09 04:25:44;;;;;;;;;;;;;;;22.70;51.68;100308.06;4966744;28;4340;-60
2022/06/09 04:28:11;;;;;;;;;;;;;;;22.71;51.70;100306.66;4968342;28;5621;-59
2022/06/09 04:30:37;;;;;;;;;;;;;;;22.70;51.53;100311.72;4968573;28;5629;-59
2022/06/09 04:33:04;;;;;;;;;;;;;;;22.70;51.43;100302.28;4967103;28;5631;-59
2022/06/09 04:35:30;;;;;;;;;;;;;;;22.70;51.59;100308.06;4967650;28;5507;-59
2022/06/09 04:38:00;;;;;;;;;;;;;;;22.69;51.68;100306.59;4970026;28;5358;-60
2022/06/09 04:40:30;;;;;;;;;;;;;;;22.69;51.59;100309.50;4970231;28;4226;-59
2022/06/09 04:42:57;;;;;;;;;;;;;;;22.68;51.58;100317.41;4970175;28;5707;-59
2022/06/09 04:45:23;;;;;;;;;;;;;;;22.69;51.57;100318.16;4967732;28;4201;-59
2022/06/09 04:47:49;;;;;;;;;;;;;;;22.68;51.59;100319.56;4967181;28;4461;-59
2022/06/09 04:50:16;;;;;;;;;;;;;;;22.68;51.61;100319.56;4970310;28;4491;-60
2022/06/09 04:52:42;;;;;;;;;;;;;;;22.68;51.61;100319.56;4970564;28;4171;-59
2022/06/09 04:55:09;;;;;;;;;;;;;;;22.68;51.48;100326.06;4968624;28;4257;-59
2022/06/09 04:57:35;;;;;;;;;;;;;;;22.69;51.66;100332.56;4969370;28;5125;-59
2022/06/09 05:00:03;;;;;;;;;;;;;;;22.69;51.45;100326.81;4969300;28;4226;-59
2022/06/09 05:02:29;;;;;;;;;;;;;;;22.69;51.32;100329.69;4967834;28;5765;-59
2022/06/09 05:04:56;;;;;;;;;;;;;;;22.68;51.38;100331.13;4967454;28;5624;-59
2022/06/09 05:07:23;;;;;;;;;;;;;;;22.69;51.43;100335.47;4964161;28;4277;-59
2022/06/09 05:09:50;;;;;;;;;;;;;;;22.70;51.69;100343.44;4965132;28;4504;-60
2022/06/09 05:12:16;;;;;;;;;;;;;;;22.70;51.65;100334.03;4964163;28;5640;-60
2022/06/09 05:14:42;;;;;;;;;;;;;;;22.69;51.50;100336.19;4957954;28;5565;-59
2022/06/09 05:17:09;;;;;;;;;;;;;;;22.69;51.95;100341.22;4962569;28;4202;-60
2022/06/09 05:19:35;;;;;;;;;;;;;;;22.68;51.95;100345.56;4967845;28;4034;-59
2022/06/09 05:22:01;;;;;;;;;;;;;;;22.68;51.87;100349.16;4966257;28;4625;-59
2022/06/09 05:24:28;;;;;;;;;;;;;;;22.68;51.80;100352.06;4968045;28;4164;-60
2022/06/09 05:26:54;;;;;;;;;;;;;;;22.68;51.72;100362.88;4961880;28;5411;-60
2022/06/09 05:29:21;;;;;;;;;;;;;;;22.69;51.83;100370.09;4963858;28;4299;-59
2022/06/09 05:31:47;;;;;;;;;;;;;;;22.70;52.24;100365.78;4955586;28;6262;-59
2022/06/09 05:34:13;;;;;;;;;;;;;;;22.67;52.17;100370.03;4955871;28;5715;-63
2022/06/09 05:36:40;;;;;;;;;;;;;;;22.65;52.20;100381.50;4962194;28;4642;-64
2022/06/09 05:44:56;;;;;;;;;;;;;;;22.69;53.13;100381.63;4955664;28;4252;-67
2022/06/09 05:47:23;;;;;;;;;;;;;;;22.81;52.64;100393.53;4963790;28;4848;-68
2022/06/09 05:49:50;;;;;;;;;;;;;;;22.82;54.28;100397.19;4966835;28;4204;-66
2022/06/09 05:52:22;;;;;;;;;;;;;;;22.95;55.23;100390.31;4967488;28;4982;-65
2022/06/09 05:54:49;;;;;;;;;;;;;;;23.00;54.10;100395.56;4968281;28;4444;-65
2022/06/09 05:57:15;;;;;;;;;;;;;;;23.04;53.50;100386.25;4966369;28;4212;-61
2022/06/09 05:59:41;;;;;;;;;;;;;;;23.11;53.44;100395.84;4962000;28;4763;-60
2022/06/09 06:02:08;;;;;;;;;;;;;;;23.15;52.91;100401.72;4968076;28;4230;-60
2022/06/09 06:04:34;;;;;;;;;;;;;;;23.18;52.46;100404.00;4966538;28;4194;-63
2022/06/09 06:07:01;;;;;;;;;;;;;;;23.13;52.00;100401.66;4963164;28;5473;-65
2022/06/09 06:09:27;;;;;;;;;;;;;;;23.12;51.79;100397.31;4968756;28;4110;-64
2022/06/09 06:11:53;;;;;;;;;;;;;;;23.11;51.84;100413.16;4966353;28;4417;-64
2022/06/09 06:14:20;;;;;;;;;;;;;;;23.12;52.25;100414.66;4967024;28;5725;-66
2022/06/09 06:16:46;;;;;;;;;;;;;;;23.14;52.00;100417.59;4968425;28;5263;-64
2022/06/09 06:19:13;;;;;;;;;;;;;;;23.14;51.95;100418.31;4968129;28;4203;-64
2022/06/09 06:21:40;;;;;;;;;;;;;;;23.13;51.71;100419.72;4967377;28;4192;-63
2022/06/09 06:24:06;;;;;;;;;;;;;;;23.15;51.87;100421.94;4965551;28;5216;-64
2022/06/09 06:26:33;;;;;;;;;;;;;;;23.15;51.84;100430.59;4965306;28;5675;-65
2022/06/09 06:29:00;;;;;;;;;;;;;;;23.16;51.78;100421.28;4967117;28;5430;-64
2022/06/09 06:31:26;;;;;;;;;;;;;;;23.18;51.91;100435.78;4966225;28;4207;-63
2022/06/09 06:33:53;;;;;;;;;;;;;;;23.21;51.76;100433.69;4967799;28;4046;-63
2022/06/09 06:36:20;;;;;;;;;;;;;;;23.23;51.47;100433.75;4966001;28;5328;-64
2022/06/09 06:38:46;;;;;;;;;;;;;;;23.22;51.34;100435.13;4966231;28;4267;-63
2022/06/09 06:41:12;;;;;;;;;;;;;;;23.21;51.34;100434.41;4964539;28;4057;-63
2022/06/09 06:43:42;;;;;;;;;;;;;;;23.20;51.17;100437.97;4965081;28;4061;-63
2022/06/09 06:46:09;;;;;;;;;;;;;;;23.25;51.98;100444.59;4955069;28;4573;-65
2022/06/09 06:48:36;;;;;;;;;;;;;;;23.15;51.57;100448.66;4963834;28;4508;-62
2022/06/09 06:51:02;;;;;;;;;;;;;;;23.15;51.61;100447.94;4962087;28;4138;-63
2022/06/09 06:53:29;;;;;;;;;;;;;;;23.16;51.63;100449.44;4963960;28;5872;-64
2022/06/09 06:55:55;;;;;;;;;;;;;;;23.20;51.78;100461.06;4959796;28;5737;-63
2022/06/09 06:58:21;;;;;;;;;;;;;;;23.19;52.35;100462.50;4959043;28;5192;-67
2022/06/09 07:00:48;;;;;;;;;;;;;;;23.32;51.99;100463.56;4962491;28;5711;-68
2022/06/09 07:03:14;;;;;;;;;;;;;;;23.37;51.68;100470.94;4962342;28;5565;-68
2022/06/09 07:05:51;;;;;;;;;;;;;;;23.42;51.44;100473.25;4961246;28;4717;-65
2022/06/09 07:08:17;;;;;;;;;;;;;;;23.41;51.38;100471.78;4960211;28;5346;-68
2022/06/09 07:10:44;;;;;;;;;;;;;;;23.47;52.00;100476.25;4952859;28;5418;-67
2022/06/09 07:13:10;;;;;;;;;;;;;;;23.61;51.87;100479.53;4965893;28;4166;-67
2022/06/09 07:15:37;;;;;;;;;;;;;;;23.66;51.51;100478.22;4957371;28;4742;-66
2022/06/09 07:18:03;;;;;;;;;;;;;;;23.66;51.47;100481.09;4962363;28;4140;-67
2022/06/09 07:20:29;;;;;;;;;;;;;;;23.71;51.60;100479.81;4964389;28;4300;-66
2022/06/09 07:22:56;;;;;;;;;;;;;;;23.72;51.02;100489.22;4966553;28;4060;-67
2022/06/09 07:25:23;;;;;;;;;;;;;;;23.74;51.39;100487.16;4964809;28;4148;-67
2022/06/09 07:27:51;;;;;;;;;;;;;;;23.68;51.37;100486.22;4962185;28;4157;-66
2022/06/09 07:30:18;;;;;;;;;;;;;;;23.62;51.15;100487.53;4960982;28;4470;-65
2022/06/09 07:32:44;;;;;;;;;;;;;;;23.62;50.99;100492.59;4964827;28;4536;-67
2022/06/09 07:35:12;;;;;;;;;;;;;;;23.62;51.14;100498.38;4962774;28;3993;-65
2022/06/09 07:37:38;;;;;;;;;;;;;;;23.62;51.06;100509.94;4955118;28;4216;-65
2022/06/09 07:40:05;;;;;;;;;;;;;;;23.61;51.06;100508.44;4953044;28;4446;-68
2022/06/09 07:42:31;;;;;;;;;;;;;;;23.60;51.10;100506.97;4959849;28;5736;-71
2022/06/09 07:44:58;;;;;;;;;;;;;;;23.60;50.89;100512.75;4961983;28;4084;-70
2022/06/09 07:47:25;;;;;;;;;;;;;;;23.60;50.61;100521.44;4963408;28;4243;-69
2022/06/09 07:49:51;;;;;;;;;;;;;;;23.61;50.48;100525.78;4957614;28;4442;-67
2022/06/09 07:52:18;;;;;;;;;;;;;;;23.61;50.80;100525.78;4959784;28;4219;-68
2022/06/09 07:54:44;;;;;;;;;;;;;;;23.62;51.42;100528.00;4961080;28;5580;-60
2022/06/09 07:57:11;;;;;;;;;;;;;;;23.72;51.39;100538.38;4964345;28;4631;-65
2022/06/09 07:59:37;;;;;;;;;;;;;;;23.78;51.31;100539.31;4960678;28;4259;-66
2022/06/09 08:02:04;;;;;;;;;;;;;;;23.70;50.88;100539.03;4958059;28;4199;-63
2022/06/09 08:04:35;;;;;;;;;;;;;;;23.59;51.34;100545.94;4963464;28;4180;-67
2022/06/09 08:07:02;;;;;;;;;;;;;;;23.61;51.32;100538.06;4960090;28;5854;-67
2022/06/09 08:09:30;;;;;;;;;;;;;;;23.61;51.30;100538.06;4958898;28;5700;-62
2022/06/09 08:11:57;;;;;;;;;;;;;;;23.63;51.41;100546.06;4962497;28;4666;-62
2022/06/09 08:14:23;;;;;;;;;;;;;;;23.62;51.31;100544.59;4962039;28;4215;-62
2022/06/09 08:16:51;;;;;;;;;;;;;;;23.61;51.28;100548.91;4964974;28;4200;-63
2022/06/09 08:19:18;;;;;;;;;;;;;;;23.61;51.37;100543.13;4965964;28;5461;-62
2022/06/09 08:21:44;;;;;;;;;;;;;;;23.61;51.41;100546.00;4963982;28;4260;-62
2022/06/09 08:24:19;;;;;;;;;;;;;;;23.61;51.46;100551.78;4964950;28;5753;-63
2022/06/09 08:26:46;;;;;;;;;;;;;;;23.60;51.10;100553.22;4965973;28;5530;-62
2022/06/09 08:29:12;;;;;;;;;;;;;;;23.59;51.00;100552.50;4959718;28;5606;-60
2022/06/09 08:31:39;;;;;;;;;;;;;;;23.59;51.20;100555.38;4960690;28;5549;-61
2022/06/09 08:34:05;;;;;;;;;;;;;;;23.60;51.09;100551.06;4964786;28;5554;-61
2022/06/09 08:36:32;;;;;;;;;;;;;;;23.49;51.34;100555.06;4960083;28;5695;-60
2022/06/09 08:38:58;;;;;;;;;;;;;;;23.36;51.25;100553.25;4960535;28;4607;-61
2022/06/09 08:41:27;;;;;;;;;;;;;;;23.30;51.48;100550.94;4961201;28;4043;-65
2022/06/09 08:44:10;;;;;;;;;;;;;;;23.27;51.74;100560.94;4956750;28;4114;-66
2022/06/09 08:46:52;;;;;;;;;;;;;;;23.26;51.88;100571.03;4960307;28;4200;-65
2022/06/09 08:49:26;;;;;;;;;;;;;;;23.18;52.12;100573.66;4947413;28;5109;-65
2022/06/09 08:51:52;;;;;;;;;;;;;;;23.16;51.96;100570.75;4946838;28;5823;-62
2022/06/09 08:54:23;;;;;;;;;;;;;;;23.15;51.99;100575.03;4949557;28;5761;-61
2022/06/09 08:56:49;;;;;;;;;;;;;;;23.14;51.99;100576.44;4955811;28;6685;-66
2022/06/09 08:59:16;;;;;;;;;;;;;;;23.15;51.81;100580.81;4951926;28;4548;-66
2022/06/09 09:02:03;;;;;;;;;;;;;;;23.14;51.95;100585.13;4950462;28;4054;-66
2022/06/09 09:04:37;;;;;;;;;;;;;;;23.10;52.49;100590.75;4959787;28;4237;-64
2022/06/09 09:07:25;;;;;;;;;;;;;;;23.10;52.86;100591.50;4963493;28;5506;-74
2022/06/09 09:09:55;;;;;;;;;;;;;;;23.11;52.39;100592.22;4955726;28;5678;-70
2022/06/09 09:12:31;;;;;;;;;;;;;;;23.03;53.30;100597.75;4960729;28;4234;-64
2022/06/09 09:15:04;;;;;;;;;;;;;;;23.01;53.16;100589.75;4975336;28;4951;-64
2022/06/09 09:17:37;;;;;;;;;;;;;;;23.01;53.52;100595.53;4968458;28;5727;-64
2022/06/09 09:20:19;;;;;;;;;;;;;;;23.06;53.32;100607.97;4967509;28;5313;-64
2022/06/09 09:23:00;;;;;;;;;;;;;;;23.06;53.06;100597.13;4967760;28;4563;-64
2022/06/09 09:25:32;;;;;;;;;;;;;;;23.07;52.91;100603.66;4964996;28;4386;-62
2022/06/09 09:28:01;;;;;;;;;;;;;;;23.06;52.71;100602.19;4963775;28;5742;-62
2022/06/09 09:30:30;;;;;;;;;;;;;;;23.05;52.48;100606.50;4956222;28;4708;-62
2022/06/09 09:32:56;;;;;;;;;;;;;;;23.06;52.38;100607.97;4965127;28;5350;-63
2022/06/09 09:35:26;;;;;;;;;;;;;;;23.05;52.20;100601.44;4958209;28;5654;-64
2022/06/09 09:37:54;;;;;;;;;;;;;;;23.00;52.23;100603.47;4965707;28;4396;-64
2022/06/09 09:40:25;;;;;;;;;;;;;;;23.03;52.01;100609.31;4968544;28;5339;-64
2022/06/09 09:42:54;;;;;;;;;;;;;;;22.96;52.33;100606.19;4961494;28;4691;-61
2022/06/09 09:45:21;;;;;;;;;;;;;;;23.03;52.17;100607.16;4960467;28;4643;-64
2022/06/09 09:47:49;;;;;;;;;;;;;;;23.05;52.10;100609.38;4959756;28;6081;-62
2022/06/09 09:50:20;;;;;;;;;;;;;;;23.04;52.15;100610.78;4962894;28;4144;-62
2022/06/09 09:52:46;;;;;;;;;;;;;;;22.99;52.43;100607.75;4966157;28;4179;-62
2022/06/09 09:55:29;;;;;;;;;;;;;;;23.03;52.11;100609.31;4965626;28;4274;-62
2022/06/09 09:58:13;;;;;;;;;;;;;;;23.22;52.97;100620.00;4959695;28;5580;-72
2022/06/09 10:00:39;;;;;;;;;;;;;;;23.38;52.51;100626.28;4959846;28;4206;-71
2022/06/09 10:09:48;;;;;;;;;;;;;;;23.49;52.21;100635.25;4934541;28;6378;-67
2022/06/09 10:12:16;;;;;;;;;;;;;;;23.54;52.36;100640.47;4960006;28;5472;-66
2022/06/09 10:14:45;;;;;;;;;;;;;;;23.56;52.37;100651.38;4960372;28;4272;-66
2022/06/09 10:17:19;;;;;;;;;;;;;;;23.57;52.27;100647.06;4968286;28;5212;-68
2022/06/09 10:20:08;;;;;;;;;;;;;;;23.61;52.50;100645.00;4957654;28;4034;-69
2022/06/09 10:22:36;;;;;;;;;;;;;;;23.63;52.66;100650.13;4965724;28;4206;-69
2022/06/09 10:25:19;;;;;;;;;;;;;;;23.63;52.79;100655.91;4960800;28;5699;-68
2022/06/09 10:27:49;;;;;;;;;;;;;;;23.45;53.42;100658.25;4965697;28;6014;-68
2022/06/09 10:30:34;;;;;;;;;;;;;;;23.38;53.63;100652.28;4961134;28;4203;-71
2022/06/09 10:33:21;;;;;;;;;;;;;;;23.57;53.32;100659.38;4968644;28;4206;-72
2022/06/09 10:35:54;;;;;;;;;;;;;;;23.68;52.79;100657.50;4939900;28;4596;-68
2022/06/09 10:38:38;;;;;;;;;;;;;;;23.73;52.57;100664.91;4962721;28;4136;-77
2022/06/09 10:41:12;;;;;;;;;;;;;;;23.69;52.37;100664.78;4961309;28;4251;-72
2022/06/09 10:43:49;;;;;;;;;;;;;;;23.63;52.67;100667.47;4961564;28;4199;-70
2022/06/09 10:46:16;;;;;;;;;;;;;;;23.57;52.98;100664.38;4974124;28;5510;-71
2022/06/09 10:57:16;;;;;;;;;;;;;;;23.70;52.13;100677.81;4961448;28;4539;-68
2022/06/09 10:59:45;;;;;;;;;;;;;;;23.73;52.86;100673.56;4983474;28;4641;-67
2022/06/09 11:02:14;;;;;;;;;;;;;;;23.66;52.73;100677.66;4964242;28;4579;-73
2022/06/09 11:04:40;;;;;;;;;;;;;;;23.72;52.54;100672.06;4964735;28;4293;-76
2022/06/09 11:07:12;;;;;;;;;;;;;;;23.77;52.39;100673.69;4965402;28;5710;-67
2022/06/09 11:09:42;;;;;;;;;;;;;;;23.77;52.21;100675.84;4956309;28;4218;-67
2022/06/09 11:12:20;;;;;;;;;;;;;;;23.77;51.81;100675.84;4952564;28;5643;-66
2022/06/09 11:14:50;;;;;;;;;;;;;;;23.78;52.54;100678.06;4978299;28;5657;-70
2022/06/09 11:17:26;;;;;;;;;;;;;;;23.72;52.74;100680.03;4968330;28;5484;-68
2022/06/09 11:20:11;;;;;;;;;;;;;;;23.79;52.65;100678.81;4963379;28;4785;-66
2022/06/09 11:22:50;;;;;;;;;;;;;;;23.77;52.28;100678.75;4962631;28;4321;-65
2022/06/09 11:25:32;;;;;;;;;;;;;;;23.76;51.49;100680.19;4955012;28;5529;-63
2022/06/09 11:28:08;;;;;;;;;;;;;;;23.70;51.44;100683.59;4955534;28;4750;-63
2022/06/09 11:30:53;;;;;;;;;;;;;;;23.80;51.63;100675.25;4966340;28;5709;-66
2022/06/09 11:33:23;;;;;;;;;;;;;;;23.83;51.12;100679.66;4963468;28;5724;-66
2022/06/09 11:36:02;;;;;;;;;;;;;;;23.83;50.80;100673.88;4959028;28;4204;-65
2022/06/09 11:38:35;;;;;;;;;;;;;;;23.82;50.68;100678.19;4963402;28;5768;-67
2022/06/09 11:41:14;;;;;;;;;;;;;;;23.87;50.84;100676.16;4979514;28;4128;-67
2022/06/09 11:44:03;;;;;;;;;;;;;;;23.89;50.94;100675.47;4962731;28;4234;-67
2022/06/09 11:46:34;;;;;;;;;;;;;;;23.89;50.99;100669.69;4958972;28;4321;-66
2022/06/09 11:49:01;;;;;;;;;;;;;;;23.88;50.79;100674.00;4963698;28;4959;-64
2022/06/09 11:51:28;;;;;;;;;;;;;;;23.86;50.45;100682.63;4966360;28;4647;-67
2022/06/09 11:53:55;;;;;;;;;;;;;;;23.86;50.35;100682.63;4968023;28;5286;-66
2022/06/09 11:56:33;;;;;;;;;;;;;;;23.75;50.74;100679.41;4966426;28;4318;-67
2022/06/09 11:59:19;;;;;;;;;;;;;;;23.77;50.80;100688.16;4967719;28;4219;-64
2022/06/09 12:01:49;;;;;;;;;;;;;;;23.79;50.65;100679.53;4961432;28;4421;-65
2022/06/09 12:04:15;;;;;;;;;;;;;;;23.79;50.71;100679.53;4964675;28;4183;-64
2022/06/09 12:06:51;;;;;;;;;;;;;;;23.78;50.76;100686.75;4966207;28;5226;-63
2022/06/09 12:09:19;;;;;;;;;;;;;;;23.78;50.94;100695.44;4959708;28;4376;-64
2022/06/09 12:11:49;;;;;;;;;;;;;;;23.78;50.62;100694.69;4965432;28;4256;-66
2022/06/09 12:14:17;;;;;;;;;;;;;;;23.79;51.12;100702.66;4964971;28;4263;-67
2022/06/09 12:17:04;;;;;;;;;;;;;;;23.80;50.88;100698.38;4966846;28;5486;-64
2022/06/09 12:19:32;;;;;;;;;;;;;;;23.80;51.24;100709.19;4959171;28;4288;-65
2022/06/09 12:21:59;;;;;;;;;;;;;;;23.71;51.74;100705.31;4961147;28;4090;-70
2022/06/09 12:24:35;;;;;;;;;;;;;;;23.66;51.27;100711.63;4963368;28;4169;-65
2022/06/09 12:27:06;;;;;;;;;;;;;;;23.58;51.29;100718.63;4968466;28;4394;-72
2022/06/09 12:29:40;;;;;;;;;;;;;;;23.71;51.78;100713.22;4969766;28;4436;-67
2022/06/09 12:32:06;;;;;;;;;;;;;;;23.77;51.22;100722.13;4959815;28;4198;-66
2022/06/09 12:34:34;;;;;;;;;;;;;;;23.81;51.29;100719.34;4967927;28;4414;-65
2022/06/09 12:37:00;;;;;;;;;;;;;;;23.82;51.42;100715.78;4968773;28;4628;-69
2022/06/09 12:39:37;;;;;;;;;;;;;;;23.83;51.19;100720.16;4970668;28;4031;-69
2022/06/09 12:42:07;;;;;;;;;;;;;;;23.85;51.10;100728.16;4970655;28;5250;-69
2022/06/09 12:44:42;;;;;;;;;;;;;;;23.87;50.84;100727.47;4970083;28;4072;-69
2022/06/09 12:47:13;;;;;;;;;;;;;;;23.86;51.21;100728.88;4970946;28;4186;-72
2022/06/09 12:49:42;;;;;;;;;;;;;;;23.87;50.99;100736.13;4971367;28;4139;-71
2022/06/09 12:52:25;;;;;;;;;;;;;;;23.92;51.11;100741.38;4971354;28;5312;-69
2022/06/09 12:54:54;;;;;;;;;;;;;;;23.73;50.71;100740.06;4967324;28;4115;-66
2022/06/09 12:57:22;;;;;;;;;;;;;;;23.77;51.00;100743.09;4968921;28;4085;-69
2022/06/09 12:59:59;;;;;;;;;;;;;;;23.80;50.49;100744.66;4971256;28;4058;-71
2022/06/09 13:02:29;;;;;;;;;;;;;;;23.82;50.63;100753.38;4965049;28;5652;-72
2022/06/09 13:04:57;;;;;;;;;;;;;;;23.82;50.31;100753.38;4965450;28;4182;-71
2022/06/09 13:07:27;;;;;;;;;;;;;;;23.85;51.13;100762.13;4965057;28;4005;-72
2022/06/09 13:10:00;;;;;;;;;;;;;;;23.87;51.09;100765.81;4966909;28;4230;-68
2022/06/09 13:15:16;;;;;;;;;;;;;;;24.31;51.10;100759.84;4964205;28;4029;-65
2022/06/09 13:17:42;;;;;;;;;;;;;;;24.37;50.78;100767.97;4963794;28;4163;-67
2022/06/09 13:20:14;;;;;;;;;;;;;;;24.39;51.28;100765.84;4964708;28;4221;-67
2022/06/09 13:22:43;;;;;;;;;;;;;;;24.42;51.11;100773.19;4968350;28;4311;-67